createdAt,value
2022-08-14T00:00:42.402Z,100431.59
2022-08-14T00:03:21.577Z,100436.56
2022-08-14T00:06:00.096Z,100439.44
2022-08-14T00:08:45.097Z,100438.47
2022-08-14T00:11:11.813Z,100433.44
2022-08-14T00:13:38.892Z,100434.84
2022-08-14T00:16:05.459Z,100433.81
2022-08-14T00:19:06.088Z,100426.94
2022-08-14T00:21:20.651Z,100427.22
2022-08-14T00:23:54.704Z,100429.34
2022-08-14T00:26:27.785Z,100422.19
2022-08-14T00:28:54.659Z,100432.38
2022-08-14T00:31:34.715Z,100426.97
2022-08-14T00:34:36.957Z,100411.63
2022-08-14T00:36:54.947Z,100400.34
2022-08-14T00:39:24.925Z,100406.78
2022-08-14T00:41:52.103Z,100404.44
2022-08-14T00:44:27.558Z,100401.75
2022-08-14T00:47:00.038Z,100408.03
2022-08-14T00:49:27.386Z,100402.97
2022-08-14T00:51:56.475Z,100402.59
2022-08-14T00:54:23.072Z,100397.66
2022-08-14T00:56:51.108Z,100398.19
2022-08-14T00:59:22.443Z,100400.22
2022-08-14T01:01:49.375Z,100397.81
2022-08-14T01:04:37.211Z,100396.16
2022-08-14T01:07:05.007Z,100393.59
2022-08-14T01:09:36.050Z,100395.91
2022-08-14T01:12:04.289Z,100389.69
2022-08-14T01:14:31.093Z,100384.81
2022-08-14T01:16:58.017Z,100387.13
2022-08-14T01:19:26.333Z,100389.09
2022-08-14T01:21:53.682Z,100377.03
2022-08-14T01:24:22.894Z,100382.66
2022-08-14T01:26:57.507Z,100383.00
2022-08-14T01:29:58.715Z,100374.13
2022-08-14T01:32:13.193Z,100376.09
2022-08-14T01:35:19.129Z,100371.72
2022-08-14T01:37:28.422Z,100369.09
2022-08-14T01:39:57.803Z,100372.06
2022-08-14T01:42:31.416Z,100367.44
2022-08-14T01:44:58.843Z,100363.97
2022-08-14T01:47:25.186Z,100358.03
2022-08-14T01:49:59.756Z,100369.94
2022-08-14T01:52:57.695Z,100357.59
2022-08-14T01:55:18.172Z,100355.66
2022-08-14T01:58:00.510Z,100353.09
2022-08-14T02:00:35.937Z,100342.78
2022-08-14T02:03:02.825Z,100344.06
2022-08-14T02:05:29.197Z,100341.94
2022-08-14T02:08:09.325Z,100337.44
2022-08-14T02:10:46.754Z,100333.72
2022-08-14T02:13:17.496Z,100329.75
2022-08-14T02:15:44.387Z,100327.09
2022-08-14T02:18:11.685Z,100322.22
2022-08-14T02:20:38.488Z,100320.16
2022-08-14T02:23:06.532Z,100325.50
2022-08-14T02:25:34.805Z,100327.72
2022-08-14T02:28:25.367Z,100326.75
2022-08-14T02:30:48.309Z,100322.16
2022-08-14T02:33:18.910Z,100315.66
2022-08-14T02:35:52.865Z,100326.56
2022-08-14T02:38:30.323Z,100323.47
2022-08-14T02:41:00.519Z,100319.19
2022-08-14T02:43:37.430Z,100317.31
2022-08-14T02:46:13.812Z,100314.31
2022-08-14T02:49:04.921Z,100314.31
2022-08-14T02:51:34.618Z,100308.69
2022-08-14T02:54:01.328Z,100298.94
2022-08-14T02:57:13.751Z,100294.75
2022-08-14T02:59:15.143Z,100299.09
2022-08-14T03:01:43.700Z,100303.25
2022-08-14T03:04:17.719Z,100307.25
2022-08-14T03:06:58.239Z,100301.16
2022-08-14T03:10:24.378Z,100288.50
2022-08-14T03:12:30.853Z,100291.84
2022-08-14T03:15:02.152Z,100282.72
2022-08-14T03:17:31.997Z,100284.66
2022-08-14T03:20:11.111Z,100280.06
2022-08-14T03:22:38.325Z,100279.16
2022-08-14T03:25:08.335Z,100277.47
2022-08-14T03:27:48.601Z,100276.06
2022-08-14T03:30:23.682Z,100270.94
2022-08-14T03:32:50.053Z,100268.72
2022-08-14T03:35:17.952Z,100262.25
2022-08-14T03:39:10.967Z,100266.22
2022-08-14T03:40:30.711Z,100268.50
2022-08-14T03:42:57.041Z,100270.78
2022-08-14T03:45:34.185Z,100268.84
2022-08-14T03:48:30.409Z,100257.88
2022-08-14T03:50:57.990Z,100260.47
2022-08-14T03:53:25.642Z,100251.50
2022-08-14T03:55:52.400Z,100249.09
2022-08-14T03:58:23.786Z,100248.91
2022-08-14T04:01:01.839Z,100247.66
2022-08-14T04:03:28.224Z,100245.19
2022-08-14T04:05:55.540Z,100241.22
2022-08-14T04:08:30.198Z,100238.56
2022-08-14T04:11:01.218Z,100227.84
2022-08-14T04:13:31.767Z,100230.41
2022-08-14T04:16:10.188Z,100234.28
2022-08-14T04:18:42.301Z,100237.28
2022-08-14T04:21:09.793Z,100234.28
2022-08-14T04:23:36.631Z,100233.72
2022-08-14T04:26:08.319Z,100229.72
2022-08-14T04:29:01.495Z,100220.47
2022-08-14T04:32:56.435Z,100212.94
2022-08-14T04:34:17.139Z,100212.44
2022-08-14T04:36:43.808Z,100205.25
2022-08-14T04:39:10.147Z,100205.09
2022-08-14T04:41:38.537Z,100201.09
2022-08-14T04:44:09.771Z,100208.19
2022-08-14T04:46:57.064Z,100215.34
2022-08-14T04:49:23.947Z,100219.09
2022-08-14T04:51:56.025Z,100222.53
2022-08-14T04:54:24.512Z,100225.09
2022-08-14T04:56:51.022Z,100221.56
2022-08-14T04:59:21.567Z,100218.00
2022-08-14T05:01:53.904Z,100213.84
2022-08-14T05:04:23.100Z,100208.69
2022-08-14T05:06:55.110Z,100212.50
2022-08-14T05:09:23.911Z,100210.22
2022-08-14T05:11:50.368Z,100209.56
2022-08-14T05:14:46.085Z,100216.66
2022-08-14T05:17:04.508Z,100214.28
2022-08-14T05:19:33.324Z,100215.72
2022-08-14T05:22:16.640Z,100217.28
2022-08-14T05:24:45.690Z,100217.22
2022-08-14T05:27:15.752Z,100223.41
2022-08-14T05:29:42.663Z,100224.00
2022-08-14T05:32:09.017Z,100225.25
2022-08-14T05:34:35.332Z,100223.88
2022-08-14T05:37:03.309Z,100219.03
2022-08-14T05:39:31.225Z,100229.47
2022-08-14T05:41:57.972Z,100227.75
2022-08-14T05:44:29.172Z,100221.31
2022-08-14T05:46:56.720Z,100224.16
2022-08-14T05:49:23.102Z,100224.63
2022-08-14T05:51:52.497Z,100220.69
2022-08-14T05:54:27.221Z,100216.22
2022-08-14T05:56:54.066Z,100224.81
2022-08-14T05:59:34.995Z,100218.03
2022-08-14T06:02:06.193Z,100210.81
2022-08-14T06:04:32.579Z,100213.75
2022-08-14T06:06:59.076Z,100213.47
2022-08-14T06:09:25.430Z,100209.50
2022-08-14T06:11:52.283Z,100205.47
2022-08-14T06:14:21.041Z,100205.84
2022-08-14T06:16:50.079Z,100206.13
2022-08-14T06:19:19.533Z,100199.94
2022-08-14T06:21:46.147Z,100193.56
2022-08-14T06:24:18.701Z,100200.59
2022-08-14T06:26:54.158Z,100193.34
2022-08-14T06:29:23.392Z,100194.38
2022-08-14T06:31:54.856Z,100200.16
2022-08-14T06:35:09.214Z,100201.41
2022-08-14T06:37:13.099Z,100197.91
2022-08-14T06:39:44.238Z,100199.69
2022-08-14T06:42:31.336Z,100194.41
2022-08-14T06:44:57.231Z,100187.91
2022-08-14T06:47:24.896Z,100193.50
2022-08-14T06:49:57.639Z,100190.78
2022-08-14T06:52:24.744Z,100192.53
2022-08-14T06:54:51.381Z,100193.53
2022-08-14T06:57:18.452Z,100184.00
2022-08-14T06:59:44.788Z,100193.56
2022-08-14T07:02:13.138Z,100193.53
2022-08-14T07:04:40.103Z,100194.34
2022-08-14T07:07:07.071Z,100196.72
2022-08-14T07:09:40.637Z,100192.41
2022-08-14T07:12:55.054Z,100192.78
2022-08-14T07:15:01.396Z,100198.34
2022-08-14T07:17:28.243Z,100192.78
2022-08-14T07:19:58.379Z,100198.66
2022-08-14T07:22:25.481Z,100193.44
2022-08-14T07:24:59.478Z,100195.78
2022-08-14T07:27:26.470Z,100203.66
2022-08-14T07:29:52.819Z,100189.75
2022-08-14T07:32:22.213Z,100191.63
2022-08-14T07:35:00.338Z,100200.53
2022-08-14T07:37:26.681Z,100189.50
2022-08-14T07:39:53.165Z,100193.47
2022-08-14T07:42:22.727Z,100191.47
2022-08-14T07:44:50.654Z,100191.84
2022-08-14T07:47:17.574Z,100185.00
2022-08-14T07:49:57.739Z,100167.97
2022-08-14T07:52:30.562Z,100167.78
2022-08-14T07:55:00.275Z,100151.88
2022-08-14T07:57:26.943Z,100157.38
2022-08-14T07:59:53.973Z,100168.59
2022-08-14T08:02:21.881Z,100166.50
2022-08-14T08:04:54.448Z,100160.22
2022-08-14T08:07:24.754Z,100158.25
2022-08-14T08:09:57.864Z,100164.09
2022-08-14T08:12:30.143Z,100160.53
2022-08-14T08:15:02.615Z,100155.22
2022-08-14T08:17:34.337Z,100147.50
2022-08-14T08:20:01.519Z,100155.56
2022-08-14T08:22:27.937Z,100154.66
2022-08-14T08:24:58.915Z,100149.84
2022-08-14T08:27:25.268Z,100151.75
2022-08-14T08:29:51.593Z,100152.41
2022-08-14T08:32:18.826Z,100157.09
2022-08-14T08:34:47.238Z,100146.75
2022-08-14T08:37:14.943Z,100152.75
2022-08-14T08:40:03.403Z,100146.38
2022-08-14T08:42:38.260Z,100143.81
2022-08-14T08:45:08.130Z,100139.56
2022-08-14T08:47:40.446Z,100130.41
2022-08-14T08:50:31.384Z,100132.63
2022-08-14T08:52:59.779Z,100123.84
2022-08-14T08:55:29.247Z,100114.38
2022-08-14T08:58:02.037Z,100106.34
2022-08-14T09:00:29.602Z,100102.50
2022-08-14T09:03:02.279Z,100098.72
2022-08-14T09:05:30.083Z,100101.19
2022-08-14T09:08:30.907Z,100088.53
2022-08-14T09:11:18.741Z,100085.47
2022-08-14T09:13:48.502Z,100082.53
2022-08-14T09:16:19.776Z,100086.34
2022-08-14T09:18:46.739Z,100082.19
2022-08-14T09:21:16.175Z,100070.84
2022-08-14T09:24:28.647Z,100069.59
2022-08-14T09:26:29.547Z,100072.94
2022-08-14T09:28:59.834Z,100072.94
2022-08-14T09:31:28.650Z,100075.03
2022-08-14T09:34:57.992Z,100072.41
2022-08-14T09:37:43.680Z,100069.88
2022-08-14T09:40:55.811Z,100056.69
2022-08-14T09:43:51.676Z,100050.09
2022-08-14T09:46:21.281Z,100052.16
2022-08-14T09:49:04.002Z,100052.84
2022-08-14T09:51:32.619Z,100052.00
2022-08-14T09:54:19.355Z,100046.75
2022-08-14T09:56:56.665Z,100050.63
2022-08-14T09:59:24.022Z,100038.44
2022-08-14T10:01:52.943Z,100044.97
2022-08-14T10:04:35.025Z,100035.72
2022-08-14T10:07:08.105Z,100031.56
2022-08-14T10:09:57.753Z,100028.28
2022-08-14T10:12:47.867Z,100018.28
2022-08-14T10:15:21.122Z,100025.16
2022-08-14T10:17:49.158Z,100019.81
2022-08-14T10:20:39.541Z,100005.47
2022-08-14T10:23:17.974Z,100011.84
2022-08-14T10:25:49.350Z,100009.75
2022-08-14T10:28:51.367Z,100002.81
2022-08-14T10:31:03.514Z,100005.63
2022-08-14T10:33:32.725Z,100004.34
2022-08-14T10:36:00.402Z,99999.56
2022-08-14T10:38:28.963Z,99997.78
2022-08-14T10:40:59.512Z,100000.34
2022-08-14T10:43:32.477Z,99984.34
2022-08-14T10:46:21.669Z,99984.34
2022-08-14T10:48:58.441Z,99982.66
2022-08-14T10:51:34.219Z,99976.16
2022-08-14T10:54:26.122Z,99976.97
2022-08-14T10:56:54.464Z,99972.50
2022-08-14T10:59:20.806Z,99969.41
2022-08-14T11:01:47.192Z,99964.19
2022-08-14T11:04:26.096Z,99960.09
2022-08-14T11:06:55.513Z,99956.56
2022-08-14T11:09:22.659Z,99954.19
2022-08-14T11:11:55.678Z,99953.47
2022-08-14T11:14:23.017Z,99944.28
2022-08-14T11:16:54.113Z,99942.75
2022-08-14T11:19:25.090Z,99938.00
2022-08-14T11:21:55.449Z,99934.47
2022-08-14T11:24:50.730Z,99938.31
2022-08-14T11:27:14.636Z,99946.44
2022-08-14T11:29:45.772Z,99940.78
2022-08-14T11:32:19.062Z,99940.34
2022-08-14T11:34:46.771Z,99936.91
2022-08-14T11:37:18.966Z,99929.16
2022-08-14T11:39:53.497Z,99930.91
2022-08-14T11:42:56.239Z,99933.00
2022-08-14T11:45:18.797Z,99931.13
2022-08-14T11:48:13.729Z,99925.22
2022-08-14T11:50:37.625Z,99925.47
2022-08-14T11:53:06.881Z,99920.56
2022-08-14T11:55:35.526Z,99921.09
2022-08-14T11:58:08.178Z,99910.91
2022-08-14T12:00:46.045Z,99907.97
2022-08-14T12:03:14.505Z,99903.75
2022-08-14T12:05:42.648Z,99890.72
2022-08-14T12:08:13.353Z,99882.75
2022-08-14T12:10:43.421Z,99885.28
2022-08-14T12:13:14.477Z,99889.63
2022-08-14T12:15:45.828Z,99877.75
2022-08-14T12:18:19.682Z,99870.88
2022-08-14T12:20:52.424Z,99875.94
2022-08-14T12:23:26.152Z,99870.72
2022-08-14T12:26:31.610Z,99875.91
2022-08-14T12:29:08.068Z,99865.63
2022-08-14T12:31:36.397Z,99876.47
2022-08-14T12:34:14.954Z,99854.38
2022-08-14T12:36:47.226Z,99873.13
2022-08-14T12:39:21.179Z,99866.94
2022-08-14T12:41:53.853Z,99865.13
2022-08-14T12:44:34.724Z,99843.72
2022-08-14T12:47:04.155Z,99833.03
2022-08-14T12:49:32.858Z,99845.41
2022-08-14T12:52:00.930Z,99831.81
2022-08-14T12:54:29.139Z,99821.31
2022-08-14T12:57:08.492Z,99822.09
2022-08-14T12:59:37.029Z,99822.00
2022-08-14T13:02:21.744Z,99813.00
2022-08-14T13:04:54.175Z,99808.72
2022-08-14T13:07:20.614Z,99808.16
2022-08-14T13:09:47.563Z,99822.38
2022-08-14T13:12:33.468Z,99814.31
2022-08-14T13:15:09.227Z,99809.44
2022-08-14T13:17:51.255Z,99811.94
2022-08-14T13:20:24.483Z,99813.72
2022-08-14T13:22:53.429Z,99808.84
2022-08-14T13:25:22.267Z,99800.31
2022-08-14T13:27:51.095Z,99800.22
2022-08-14T13:30:24.194Z,99803.81
2022-08-14T13:32:53.026Z,99805.59
2022-08-14T13:35:20.203Z,99793.78
2022-08-14T13:37:52.375Z,99791.22
2022-08-14T13:40:26.582Z,99784.38
2022-08-14T13:42:56.740Z,99782.38
2022-08-14T13:45:24.373Z,99779.72
2022-08-14T13:48:00.609Z,99786.81
2022-08-14T13:50:26.963Z,99774.81
2022-08-14T13:52:54.653Z,99771.81
2022-08-14T13:55:25.600Z,99760.44
2022-08-14T13:58:03.783Z,99752.81
2022-08-14T14:00:35.299Z,99749.84
2022-08-14T14:03:04.611Z,99746.28
2022-08-14T14:05:53.007Z,99739.91
2022-08-14T14:08:45.713Z,99736.78
2022-08-14T14:11:09.658Z,99731.13
2022-08-14T14:13:37.487Z,99720.03
2022-08-14T14:16:09.279Z,99720.59
2022-08-14T14:18:36.691Z,99716.50
2022-08-14T14:21:09.229Z,99720.44
2022-08-14T14:23:36.551Z,99721.50
2022-08-14T14:26:03.281Z,99722.19
2022-08-14T14:28:31.778Z,99716.03
2022-08-14T14:31:01.249Z,99715.56
2022-08-14T14:33:49.905Z,99715.69
2022-08-14T14:36:26.788Z,99709.22
2022-08-14T14:38:56.410Z,99705.59
2022-08-14T14:41:25.376Z,99706.59
2022-08-14T14:43:54.215Z,99692.19
2022-08-14T14:46:22.447Z,99696.44
2022-08-14T14:49:05.996Z,99690.06
2022-08-14T14:51:34.238Z,99682.69
2022-08-14T14:54:00.882Z,99672.34
2022-08-14T14:56:49.559Z,99668.47
2022-08-14T14:59:15.646Z,99665.19
2022-08-14T15:01:47.585Z,99663.16
2022-08-14T15:04:20.752Z,99665.78
2022-08-14T15:06:48.332Z,99660.16
2022-08-14T15:09:18.132Z,99645.00
2022-08-14T15:11:45.582Z,99646.72
2022-08-14T15:14:56.030Z,99653.69
2022-08-14T15:16:59.174Z,99646.56
2022-08-14T15:19:26.730Z,99641.78
2022-08-14T15:21:53.159Z,99647.91
2022-08-14T15:24:26.530Z,99655.53
2022-08-14T15:26:53.235Z,99658.06
2022-08-14T15:29:19.580Z,99658.47
2022-08-14T15:31:45.950Z,99661.13
2022-08-14T15:34:44.088Z,99659.75
2022-08-14T15:36:59.718Z,99647.63
2022-08-14T15:39:26.209Z,99645.38
2022-08-14T15:41:57.134Z,99644.47
2022-08-14T15:44:25.824Z,99647.31
2022-08-14T15:46:55.192Z,99641.09
2022-08-14T15:49:22.931Z,99647.09
2022-08-14T15:51:51.056Z,99638.84
2022-08-14T15:54:17.711Z,99646.16
2022-08-14T15:56:59.205Z,99631.16
2022-08-14T15:59:26.342Z,99630.22
2022-08-14T16:01:55.144Z,99629.28
2022-08-14T16:04:21.963Z,99633.41
2022-08-14T16:06:54.654Z,99637.03
2022-08-14T16:09:21.851Z,99633.31
2022-08-14T16:11:50.728Z,99635.63
2022-08-14T16:14:21.407Z,99643.28
2022-08-14T16:17:00.631Z,99629.63
2022-08-14T16:19:29.367Z,99629.53
2022-08-14T16:22:57.663Z,99625.31
2022-08-14T16:25:02.503Z,99626.53
2022-08-14T16:27:41.026Z,99627.44
2022-08-14T16:30:24.748Z,99618.84
2022-08-14T16:32:56.399Z,99612.13
2022-08-14T16:35:43.003Z,99614.91
2022-08-14T16:38:48.275Z,99621.84
2022-08-14T16:41:06.633Z,99619.81
2022-08-14T16:43:33.387Z,99611.44
2022-08-14T16:46:00.247Z,99608.84
2022-08-14T16:48:54.990Z,99613.22
2022-08-14T16:51:14.098Z,99606.63
2022-08-14T16:53:41.652Z,99608.97
2022-08-14T16:56:23.049Z,99600.34
2022-08-14T16:59:02.725Z,99604.38
2022-08-14T17:01:31.920Z,99607.75
2022-08-14T17:04:03.242Z,99607.88
2022-08-14T17:06:43.086Z,99600.38
2022-08-14T17:09:29.286Z,99597.13
2022-08-14T17:12:01.412Z,99587.25
2022-08-14T17:15:00.146Z,99594.31
2022-08-14T17:17:40.685Z,99589.28
2022-08-14T17:20:54.650Z,99592.97
2022-08-14T17:22:59.751Z,99587.41
2022-08-14T17:25:34.378Z,99580.44
2022-08-14T17:28:51.943Z,99587.84
2022-08-14T17:31:02.593Z,99574.28
2022-08-14T17:33:30.576Z,99574.50
2022-08-14T17:36:21.426Z,99576.22
2022-08-14T17:39:14.887Z,99576.75
2022-08-14T17:41:46.922Z,99569.38
2022-08-14T17:44:34.018Z,99568.03
2022-08-14T17:47:11.504Z,99562.22
2022-08-14T17:49:51.711Z,99570.25
2022-08-14T17:52:34.165Z,99564.44
2022-08-14T17:55:02.282Z,99566.97
2022-08-14T17:57:30.257Z,99571.03
2022-08-14T18:00:01.998Z,99569.13
2022-08-14T18:02:30.915Z,99573.13
2022-08-14T18:04:59.807Z,99569.53
2022-08-14T18:08:00.273Z,99570.78
2022-08-14T18:10:53.084Z,99574.06
2022-08-14T18:13:04.040Z,99574.03
2022-08-14T18:15:37.089Z,99574.22
2022-08-14T18:18:05.930Z,99571.13
2022-08-14T18:21:42.799Z,99577.72
2022-08-14T18:23:20.738Z,99574.44
2022-08-14T18:25:53.504Z,99573.56
2022-08-14T18:28:32.222Z,99574.91
2022-08-14T18:31:20.956Z,99579.72
2022-08-14T18:34:30.596Z,99576.31
2022-08-14T18:37:06.961Z,99580.59
2022-08-14T18:40:02.399Z,99574.94
2022-08-14T18:42:30.309Z,99572.22
2022-08-14T18:45:12.833Z,99578.94
2022-08-14T18:48:14.475Z,99572.03
2022-08-14T18:50:31.082Z,99579.34
2022-08-14T18:53:07.031Z,99575.72
2022-08-14T18:55:33.461Z,99583.03
2022-08-14T18:58:00.266Z,99578.31
2022-08-14T19:00:32.216Z,99581.53
2022-08-14T19:03:01.523Z,99581.09
2022-08-14T19:05:47.658Z,99581.41
2022-08-14T19:08:17.745Z,99577.38
2022-08-14T19:10:49.722Z,99572.03
2022-08-14T19:13:48.169Z,99572.53
2022-08-14T19:16:16.995Z,99573.56
2022-08-14T19:19:00.203Z,99574.66
2022-08-14T19:21:33.218Z,99575.00
2022-08-14T19:24:27.323Z,99576.53
2022-08-14T19:27:23.665Z,99578.34
2022-08-14T19:29:51.809Z,99571.53
2022-08-14T19:32:36.629Z,99563.34
2022-08-14T19:35:14.958Z,99571.16
2022-08-14T19:37:52.495Z,99565.66
2022-08-14T19:40:37.522Z,99565.94
2022-08-14T19:43:06.933Z,99561.63
2022-08-14T19:45:36.636Z,99571.69
2022-08-14T19:48:10.106Z,99559.66
2022-08-14T19:50:41.250Z,99566.22
2022-08-14T19:53:11.819Z,99566.69
2022-08-14T19:55:45.581Z,99568.94
2022-08-14T19:58:12.767Z,99566.00
2022-08-14T20:00:51.729Z,99568.41
2022-08-14T20:03:23.422Z,99571.25
2022-08-14T20:05:58.967Z,99575.41
2022-08-14T20:10:59.043Z,99564.34
2022-08-14T20:12:02.030Z,99572.88
2022-08-14T20:14:20.533Z,99576.84
2022-08-14T20:16:50.746Z,99576.56
2022-08-14T20:19:21.094Z,99574.25
2022-08-14T20:22:04.757Z,99571.97
2022-08-14T20:24:41.809Z,99569.91
2022-08-14T20:27:37.371Z,99569.31
2022-08-14T20:30:33.683Z,99563.44
2022-08-14T20:33:07.824Z,99563.63
2022-08-14T20:35:39.762Z,99576.69
2022-08-14T20:38:30.874Z,99570.38
2022-08-14T20:41:05.756Z,99566.50
2022-08-14T20:43:36.184Z,99562.59
2022-08-14T20:46:20.308Z,99566.22
2022-08-14T20:49:04.449Z,99562.66
2022-08-14T20:51:54.526Z,99573.34
2022-08-14T20:54:36.434Z,99570.38
2022-08-14T20:57:15.777Z,99566.91
2022-08-14T20:59:48.753Z,99561.41
2022-08-14T21:02:30.400Z,99563.50
2022-08-14T21:05:16.609Z,99559.22
2022-08-14T21:07:50.261Z,99552.97
2022-08-14T21:10:35.589Z,99558.25
2022-08-14T21:13:26.154Z,99553.13
2022-08-14T21:15:57.448Z,99545.44
2022-08-14T21:18:35.190Z,99559.78
2022-08-14T21:21:18.089Z,99555.84
2022-08-14T21:23:54.713Z,99563.06
2022-08-14T21:26:51.057Z,99562.75
2022-08-14T21:29:10.548Z,99558.06
2022-08-14T21:31:40.690Z,99554.53
2022-08-14T21:34:27.255Z,99556.97
2022-08-14T21:36:54.973Z,99557.06
2022-08-14T21:39:22.855Z,99548.34
2022-08-14T21:41:58.625Z,99540.97
2022-08-14T21:44:43.174Z,99543.75
2022-08-14T21:47:10.738Z,99554.50
2022-08-14T21:49:38.937Z,99557.63
2022-08-14T21:52:52.077Z,99553.19
2022-08-14T21:54:59.915Z,99550.03
2022-08-14T21:57:56.484Z,99556.03
2022-08-14T22:00:34.613Z,99558.00
2022-08-14T22:03:04.117Z,99554.03
2022-08-14T22:05:30.907Z,99557.19
2022-08-14T22:07:57.718Z,99556.03
2022-08-14T22:10:24.386Z,99546.94
2022-08-14T22:13:00.387Z,99544.16
2022-08-14T22:15:29.839Z,99545.03
2022-08-14T22:17:58.014Z,99547.84
2022-08-14T22:20:25.652Z,99542.72
2022-08-14T22:22:56.517Z,99538.81
2022-08-14T22:25:33.279Z,99541.63
2022-08-14T22:28:00.292Z,99532.94
2022-08-14T22:30:26.787Z,99530.53
2022-08-14T22:32:57.555Z,99531.28
2022-08-14T22:35:25.199Z,99523.34
2022-08-14T22:38:35.013Z,99534.41
2022-08-14T22:40:58.391Z,99525.31
2022-08-14T22:43:27.745Z,99523.75
2022-08-14T22:45:57.833Z,99521.34
2022-08-14T22:48:29.734Z,99518.59
2022-08-14T22:50:56.280Z,99523.38
2022-08-14T22:53:23.743Z,99521.47
2022-08-14T22:55:52.010Z,99523.41
2022-08-14T22:58:19.675Z,99515.50
2022-08-14T23:00:57.167Z,99519.44
2022-08-14T23:03:24.320Z,99525.81
2022-08-14T23:05:52.935Z,99510.00
2022-08-14T23:08:57.653Z,99519.50
2022-08-14T23:11:09.735Z,99512.34
2022-08-14T23:13:39.050Z,99520.22
2022-08-14T23:16:05.867Z,99509.13
2022-08-14T23:18:32.663Z,99512.28
2022-08-14T23:20:59.007Z,99500.41
2022-08-14T23:23:26.751Z,99507.00
2022-08-14T23:25:59.629Z,99505.88
2022-08-14T23:28:35.017Z,99514.69
2022-08-14T23:31:34.500Z,99523.44
2022-08-14T23:34:07.028Z,99520.66
2022-08-14T23:36:38.072Z,99519.13
2022-08-14T23:39:20.840Z,99512.44
2022-08-14T23:41:52.632Z,99514.03
2022-08-14T23:44:23.634Z,99518.78
2022-08-14T23:46:52.622Z,99500.59
2022-08-14T23:49:24.715Z,99505.72
2022-08-14T23:51:59.783Z,99505.31
2022-08-14T23:54:48.239Z,99500.97
2022-08-14T23:57:19.146Z,99499.38
2022-08-14T23:59:54.378Z,99494.25
